Terminal Aerodrome Forecast
Issued by NWS

Home | Current Version | Previous Version | Text Only | Print | Product List | Glossary On
Versions: 1 2 3 4 5 6 7 8 9 10 11 12 13 14 15 16 17 18 19 20 21 22 23 24
000
FTUS45 KGGW 191100
TAFGDV
TAF
KGDV 191133Z 1912/2012 28016KT P6SM BKN060
     FM191500 32020G30KT P6SM BKN050
     FM200000 34019G28KT P6SM SCT090
     FM200600 32008KT P6SM SCT080
      AMD LTD TO CLD VIS AND WIND=

USA.gov is the U.S. government's official web portal to all federal, state and local government web resources and services.